| time (UTC) | Packet |
| 20260901072210 | KO5MO-4>APRS,TCPIP*,qAC,T2DENMARK:=3333.69N/11210.39W_202.5/003g003t081r013p...P...h57b101135N1 - Room Humidity: 26.77% Room Temp:83.11 F |
| 20260901073210 | KO5MO-4>APRS,TCPIP*,qAC,T2DENMARK:=3333.69N/11210.39W_157.5/003g002t081r013p...P...h58b101145N1 - Room Humidity: 26.29% Room Temp:82.73 F |
| 20260901073710 | KO5MO-4>APRS,TCPIP*,qAC,T2DENMARK:=3333.69N/11210.39W_202.5/002g002t081r013p...P...h58b101145N1 - Room Humidity: 26.74% Room Temp:82.88 F |
| 20260901074210 | KO5MO-4>APRS,TCPIP*,qAC,T2DENMARK:=3333.69N/11210.39W_202.5/001g001t081r013p...P...h58b101155N1 - Room Humidity: 25.97% Room Temp:83.13 F |
| 20260901075210 | KO5MO-4>APRS,TCPIP*,qAC,T2DENMARK:=3333.69N/11210.39W_157.5/004g004t080r013p...P...h59b101155N1 - Room Humidity: 26.67% Room Temp:82.81 F |
| 20260901075710 | KO5MO-4>APRS,TCPIP*,qAC,T2DENMARK:=3333.69N/11210.39W_157.5/004g003t080r013p...P...h59b101155N1 - Room Humidity: 27.13% Room Temp:83.03 F |
| 20260901080210 | KO5MO-4>APRS,TCPIP*,qAC,T2DENMARK:=3333.69N/11210.39W_157.5/000g001t080r013p...P...h59b101155N1 - Room Humidity: 25.56% Room Temp:83.11 F |
| 20260901081710 | KO5MO-4>APRS,TCPIP*,qAC,T2DENMARK:=3333.69N/11210.39W_157.5/002g002t080r013p...P...h61b101145N1 - Room Humidity: 26.67% Room Temp:83.05 F |
| 20260901082210 | KO5MO-4>APRS,TCPIP*,qAC,T2DENMARK:=3333.69N/11210.39W_157.5/002g003t080r013p...P...h61b101145N1 - Room Humidity: 25.55% Room Temp:82.96 F |
| 20260901082710 | KO5MO-4>APRS,TCPIP*,qAC,T2DENMARK:=3333.69N/11210.39W_157.5/002g002t080r013p...P...h61b101145N1 - Room Humidity: 26.64% Room Temp:82.71 F |
| 20260901084210 | KO5MO-4>APRS,TCPIP*,qAC,T2DENMARK:=3333.69N/11210.39W_157.5/002g002t080r013p...P...h62b101145N1 - Room Humidity: 25.09% Room Temp:82.88 F |
| 20260901084710 | KO5MO-4>APRS,TCPIP*,qAC,T2DENMARK:=3333.69N/11210.39W_112.5/002g001t079r013p...P...h62b101145N1 - Room Humidity: 27.02% Room Temp:82.69 F |
| 20260901085210 | KO5MO-4>APRS,TCPIP*,qAC,T2DENMARK:=3333.69N/11210.39W_112.5/001g000t079r013p...P...h63b101135N1 - Room Humidity: 26.8% Room Temp:82.88 F |
| 20260901085710 | KO5MO-4>APRS,TCPIP*,qAC,T2DENMARK:=3333.69N/11210.39W_202.5/001g002t080r013p...P...h63b101135N1 - Room Humidity: 26.42% Room Temp:83 F |
| 20260901090210 | KO5MO-4>APRS,TCPIP*,qAC,T2DENMARK:=3333.69N/11210.39W_202.5/001g001t079r013p...P...h63b101135N1 - Room Humidity: 26.56% Room Temp:82.73 F |
| 20260901090710 | KO5MO-4>APRS,TCPIP*,qAC,T2DENMARK:=3333.69N/11210.39W_202.5/001g001t079r013p...P...h63b101135N1 - Room Humidity: 26.89% Room Temp:82.69 F |
| 20260901093210 | KO5MO-4>APRS,TCPIP*,qAC,T2DENMARK:=3333.69N/11210.39W_202.5/001g002t079r013p...P...h63b101135N1 - Room Humidity: 26.89% Room Temp:82.95 F |
| 20260901093710 | KO5MO-4>APRS,TCPIP*,qAC,T2DENMARK:=3333.69N/11210.39W_202.5/002g003t079r013p...P...h63b101135N1 - Room Humidity: 25.71% Room Temp:82.81 F |
| 20260901095710 | KO5MO-4>APRS,TCPIP*,qAC,T2DENMARK:=3333.69N/11210.39W_202.5/002g001t079r013p...P...h65b101145N1 - Room Humidity: 26.53% Room Temp:82.76 F |
| 20260901100210 | KO5MO-4>APRS,TCPIP*,qAC,T2DENMARK:=3333.69N/11210.39W_202.5/001g001t078r013p...P...h65b101135N1 - Room Humidity: 27.1% Room Temp:82.63 F |
| 20260901101210 | KO5MO-4>APRS,TCPIP*,qAC,T2DENMARK:=3333.69N/11210.39W_202.5/002g002t078r013p...P...h66b101125N1 - Room Humidity: 26% Room Temp:82.69 F |
| 20260901101710 | KO5MO-4>APRS,TCPIP*,qAC,T2DENMARK:=3333.69N/11210.39W_157.5/002g002t078r013p...P...h66b101125N1 - Room Humidity: 27.11% Room Temp:82.3 F |
| 20260901102710 | KO5MO-4>APRS,TCPIP*,qAC,T2DENMARK:=3333.69N/11210.39W_202.5/000g000t078r013p...P...h67b101135N1 - Room Humidity: 27.61% Room Temp:82.34 F |
| 20260901103210 | KO5MO-4>APRS,TCPIP*,qAC,T2DENMARK:=3333.69N/11210.39W_202.5/000g000t078r013p...P...h68b101125N1 - Room Humidity: 26.37% Room Temp:82.3 F |
| 20260901103710 | KO5MO-4>APRS,TCPIP*,qAC,T2DENMARK:=3333.69N/11210.39W_202.5/000g000t077r013p...P...h69b101125N1 - Room Humidity: 27.13% Room Temp:82.19 F |
| 20260901110710 | KO5MO-4>APRS,TCPIP*,qAC,T2DENMARK:=3333.69N/11210.39W_202.5/000g000t076r013p...P...h72b101125N1 - Room Humidity: 27.07% Room Temp:82.01 F |
| 20260901112710 | KO5MO-4>APRS,TCPIP*,qAC,T2DENMARK:=3333.69N/11210.39W_202.5/000g000t076r013p...P...h73b101125N1 - Room Humidity: 26.82% Room Temp:82.16 F |
| 20260901115210 | KO5MO-4>APRS,TCPIP*,qAC,T2DENMARK:=3333.69N/11210.39W_202.5/000g000t076r013p...P...h74b101145N1 - Room Humidity: 28.35% Room Temp:82.64 F |
| 20260901115710 | KO5MO-4>APRS,TCPIP*,qAC,T2DENMARK:=3333.69N/11210.39W_202.5/000g000t075r013p...P...h73b101145N1 - Room Humidity: 28.5% Room Temp:83.01 F |
| 20260901120210 | KO5MO-4>APRS,TCPIP*,qAC,T2DENMARK:=3333.69N/11210.39W_112.5/000g000t075r013p...P...h73b101155N1 - Room Humidity: 28.82% Room Temp:83.32 F |
| 20260901120710 | KO5MO-4>APRS,TCPIP*,qAC,T2DENMARK:=3333.69N/11210.39W_337.5/000g000t076r013p...P...h73b101155N1 - Room Humidity: 28.75% Room Temp:83.4 F |
| 20260901122210 | KO5MO-4>APRS,TCPIP*,qAC,T2DENMARK:=3333.69N/11210.39W_67.5/000g000t076r013p...P...h73b101165N1 - Room Humidity: 29.2% Room Temp:83.31 F |
| 20260901124210 | KO5MO-4>APRS,TCPIP*,qAC,T2DENMARK:=3333.69N/11210.39W_202.5/000g000t076r013p...P...h72b101175N1 - Room Humidity: 28.89% Room Temp:83.33 F |
| 20260901124710 | KO5MO-4>APRS,TCPIP*,qAC,T2DENMARK:=3333.69N/11210.39W_202.5/000g000t076r013p...P...h72b101175N1 - Room Humidity: 29.14% Room Temp:83.38 F |
| 20260901130210 | KO5MO-4>APRS,TCPIP*,qAC,T2DENMARK:=3333.69N/11210.39W_157.5/000g000t075r013p...P...h73b101175N1 - Room Humidity: 27.79% Room Temp:83.49 F |
| 20260901131210 | KO5MO-4>APRS,TCPIP*,qAC,T2DENMARK:=3333.69N/11210.39W_112.5/000g000t075r013p...P...h74b101185N1 - Room Humidity: 28.86% Room Temp:83.44 F |